Burlington, Wisconsin
Current Conditions -  °F | °C
As of 12:55 PM on Thursday 30 Oct 2014 (Local Time) from KBUU Reporting Station
Clear Clear  
Wind Chill: 44°   Ceiling: Unl
Heat Index: 48°   Visibility: 10mi
Dew Point: 33°   Wind: 10mph
Humidity: 56%   Direction: 240°WSW
Pressure: 30.08"   Gusts: 16mph
Location:  42.68°N, 88.28°W
Report Text: KBUU 301755Z AUTO 24009G14KT 10SM CLR 09/01 A3008 RMK AO2 T00900006 10094 21021
Loading
Personal Weather Stations






























Interactive Weather Map
Tropical Storm Tracking
New forecast layout! Learn more

10-Day Weather Forecast

Advertisements
Track Severe Weather on mobile